sensor_id;sensor_type;location;lat;lon;timestamp;pressure;altitude;pressure_sealevel;temperature;humidity
78056;BME280;67666;55.862;49.094;2023-03-01T00:01:23;98487.16;;;22.53;17.04
78056;BME280;67666;55.862;49.094;2023-03-01T00:03:50;98474.00;;;22.54;17.38
78056;BME280;67666;55.862;49.094;2023-03-01T00:06:17;98482.00;;;22.51;17.40
78056;BME280;67666;55.862;49.094;2023-03-01T00:08:44;98482.94;;;22.50;17.39
78056;BME280;67666;55.862;49.094;2023-03-01T00:11:25;98477.69;;;22.50;17.28
78056;BME280;67666;55.862;49.094;2023-03-01T00:13:54;98483.72;;;22.52;17.24
78056;BME280;67666;55.862;49.094;2023-03-01T00:16:26;98483.63;;;22.54;17.22
78056;BME280;67666;55.862;49.094;2023-03-01T00:18:55;98477.13;;;22.61;17.55
78056;BME280;67666;55.862;49.094;2023-03-01T00:21:22;98479.41;;;22.67;17.37
78056;BME280;67666;55.862;49.094;2023-03-01T00:23:50;98474.88;;;22.70;17.78
78056;BME280;67666;55.862;49.094;2023-03-01T00:26:18;98476.66;;;22.70;17.43
78056;BME280;67666;55.862;49.094;2023-03-01T00:28:45;98471.16;;;22.74;17.57
78056;BME280;67666;55.862;49.094;2023-03-01T00:31:18;98472.69;;;22.79;17.29
78056;BME280;67666;55.862;49.094;2023-03-01T00:33:45;98471.75;;;22.80;17.24
78056;BME280;67666;55.862;49.094;2023-03-01T00:36:13;98466.69;;;22.77;17.15
78056;BME280;67666;55.862;49.094;2023-03-01T00:38:43;98464.19;;;22.75;17.32
78056;BME280;67666;55.862;49.094;2023-03-01T00:41:11;98470.84;;;22.81;17.58
78056;BME280;67666;55.862;49.094;2023-03-01T00:43:38;98468.25;;;22.81;17.65
78056;BME280;67666;55.862;49.094;2023-03-01T00:46:07;98456.16;;;22.78;17.18
78056;BME280;67666;55.862;49.094;2023-03-01T00:48:35;98452.59;;;22.79;17.43
78056;BME280;67666;55.862;49.094;2023-03-01T00:53:32;98451.84;;;22.77;17.66
78056;BME280;67666;55.862;49.094;2023-03-01T00:55:59;98450.06;;;22.78;17.55
78056;BME280;67666;55.862;49.094;2023-03-01T00:58:25;98449.78;;;22.66;17.72
78056;BME280;67666;55.862;49.094;2023-03-01T01:00:52;98440.88;;;22.70;17.82
78056;BME280;67666;55.862;49.094;2023-03-01T01:03:22;98443.25;;;22.75;17.50
78056;BME280;67666;55.862;49.094;2023-03-01T01:05:54;98444.22;;;22.72;17.95
78056;BME280;67666;55.862;49.094;2023-03-01T01:08:20;98439.50;;;22.79;17.67
78056;BME280;67666;55.862;49.094;2023-03-01T01:10:47;98439.13;;;22.87;17.88
78056;BME280;67666;55.862;49.094;2023-03-01T01:13:15;98440.09;;;22.84;17.56
78056;BME280;67666;55.862;49.094;2023-03-01T01:15:42;98438.88;;;22.91;17.63
78056;BME280;67666;55.862;49.094;2023-03-01T01:18:08;98429.78;;;22.98;17.37
78056;BME280;67666;55.862;49.094;2023-03-01T01:20:35;98435.34;;;22.92;17.55
78056;BME280;67666;55.862;49.094;2023-03-01T01:23:05;98430.47;;;22.85;17.31
78056;BME280;67666;55.862;49.094;2023-03-01T01:25:34;98428.69;;;22.85;17.44
78056;BME280;67666;55.862;49.094;2023-03-01T01:28:00;98428.03;;;22.82;17.35
78056;BME280;67666;55.862;49.094;2023-03-01T01:30:27;98422.13;;;22.78;17.47
78056;BME280;67666;55.862;49.094;2023-03-01T01:32:53;98423.66;;;22.82;17.67
78056;BME280;67666;55.862;49.094;2023-03-01T01:35:19;98420.94;;;22.84;17.50
78056;BME280;67666;55.862;49.094;2023-03-01T01:37:46;98421.78;;;22.84;17.64
78056;BME280;67666;55.862;49.094;2023-03-01T01:40:12;98416.97;;;22.77;17.07
78056;BME280;67666;55.862;49.094;2023-03-01T01:42:38;98419.75;;;22.73;17.33
78056;BME280;67666;55.862;49.094;2023-03-01T01:47:55;98416.53;;;22.84;17.29
78056;BME280;67666;55.862;49.094;2023-03-01T01:50:22;98415.41;;;22.90;17.55
78056;BME280;67666;55.862;49.094;2023-03-01T01:52:50;98409.22;;;22.91;17.16
78056;BME280;67666;55.862;49.094;2023-03-01T01:55:26;98409.22;;;22.91;17.33
78056;BME280;67666;55.862;49.094;2023-03-01T01:57:57;98412.44;;;22.96;17.52
78056;BME280;67666;55.862;49.094;2023-03-01T02:00:28;98409.91;;;22.94;17.17
78056;BME280;67666;55.862;49.094;2023-03-01T02:03:04;98410.59;;;22.98;17.20
78056;BME280;67666;55.862;49.094;2023-03-01T02:08:40;98400.00;;;22.84;17.15
78056;BME280;67666;55.862;49.094;2023-03-01T02:11:09;98401.03;;;22.81;17.53
78056;BME280;67666;55.862;49.094;2023-03-01T02:13:36;98401.78;;;22.83;17.33
78056;BME280;67666;55.862;49.094;2023-03-01T02:16:11;98401.69;;;22.85;17.16
78056;BME280;67666;55.862;49.094;2023-03-01T02:18:41;98394.34;;;22.75;17.20
78056;BME280;67666;55.862;49.094;2023-03-01T02:23:54;98387.50;;;22.73;17.39
78056;BME280;67666;55.862;49.094;2023-03-01T02:26:41;98390.56;;;22.81;17.37
78056;BME280;67666;55.862;49.094;2023-03-01T02:29:08;98391.56;;;22.79;16.93
78056;BME280;67666;55.862;49.094;2023-03-01T02:31:35;98380.59;;;22.72;17.27
78056;BME280;67666;55.862;49.094;2023-03-01T02:34:16;98390.63;;;22.80;17.05
78056;BME280;67666;55.862;49.094;2023-03-01T02:36:55;98382.31;;;22.89;17.28
78056;BME280;67666;55.862;49.094;2023-03-01T02:39:29;98386.50;;;22.75;17.51
78056;BME280;67666;55.862;49.094;2023-03-01T02:41:59;98378.72;;;22.74;17.10
78056;BME280;67666;55.862;49.094;2023-03-01T02:44:26;98378.06;;;22.70;17.50
78056;BME280;67666;55.862;49.094;2023-03-01T02:46:55;98374.75;;;22.67;17.46
78056;BME280;67666;55.862;49.094;2023-03-01T02:49:27;98373.75;;;22.69;17.25
78056;BME280;67666;55.862;49.094;2023-03-01T02:57:26;98377.88;;;22.73;17.19
78056;BME280;67666;55.862;49.094;2023-03-01T02:59:55;98376.09;;;22.74;17.57
78056;BME280;67666;55.862;49.094;2023-03-01T03:02:25;98376.94;;;22.74;17.25
78056;BME280;67666;55.862;49.094;2023-03-01T03:05:30;98379.25;;;22.81;17.59
78056;BME280;67666;55.862;49.094;2023-03-01T03:08:00;98384.41;;;22.82;17.50
78056;BME280;67666;55.862;49.094;2023-03-01T03:10:29;98382.41;;;22.87;17.49
78056;BME280;67666;55.862;49.094;2023-03-01T03:13:05;98383.75;;;22.94;17.04
78056;BME280;67666;55.862;49.094;2023-03-01T03:15:32;98375.53;;;23.00;17.17
78056;BME280;67666;55.862;49.094;2023-03-01T03:18:04;98381.03;;;22.96;17.37
78056;BME280;67666;55.862;49.094;2023-03-01T03:20:30;98376.81;;;22.93;17.32
78056;BME280;67666;55.862;49.094;2023-03-01T03:22:58;98388.88;;;22.96;17.24
78056;BME280;67666;55.862;49.094;2023-03-01T03:25:25;98375.03;;;22.94;17.28
78056;BME280;67666;55.862;49.094;2023-03-01T03:27:53;98376.03;;;22.91;17.56
78056;BME280;67666;55.862;49.094;2023-03-01T03:30:29;98384.34;;;22.99;17.09
78056;BME280;67666;55.862;49.094;2023-03-01T03:32:56;98365.16;;;22.99;17.64
78056;BME280;67666;55.862;49.094;2023-03-01T03:35:26;98365.25;;;22.97;17.48
78056;BME280;67666;55.862;49.094;2023-03-01T03:37:57;98367.28;;;23.38;17.49
78056;BME280;67666;55.862;49.094;2023-03-01T03:40:37;98368.41;;;23.18;17.58
78056;BME280;67666;55.862;49.094;2023-03-01T03:43:13;98363.63;;;22.95;17.91
78056;BME280;67666;55.862;49.094;2023-03-01T03:45:40;98364.06;;;23.03;17.70
78056;BME280;67666;55.862;49.094;2023-03-01T03:48:08;98367.41;;;21.22;18.72
78056;BME280;67666;55.862;49.094;2023-03-01T03:50:39;98384.19;;;18.75;21.79
78056;BME280;67666;55.862;49.094;2023-03-01T03:53:09;98383.81;;;17.64;22.82
78056;BME280;67666;55.862;49.094;2023-03-01T03:55:36;98379.16;;;17.22;23.20
78056;BME280;67666;55.862;49.094;2023-03-01T03:58:07;98371.31;;;17.50;23.14
78056;BME280;67666;55.862;49.094;2023-03-01T04:00:44;98372.28;;;19.35;20.58
78056;BME280;67666;55.862;49.094;2023-03-01T04:03:15;98375.34;;;20.45;19.31
78056;BME280;67666;55.862;49.094;2023-03-01T04:05:42;98375.03;;;21.08;18.41
78056;BME280;67666;55.862;49.094;2023-03-01T04:08:08;98371.53;;;21.45;18.18
78056;BME280;67666;55.862;49.094;2023-03-01T04:13:06;98367.94;;;21.98;17.70
78056;BME280;67666;55.862;49.094;2023-03-01T04:15:33;98372.75;;;22.06;17.37
78056;BME280;67666;55.862;49.094;2023-03-01T04:18:00;98379.31;;;22.14;17.32
78056;BME280;67666;55.862;49.094;2023-03-01T04:20:27;98376.16;;;22.25;17.20
78056;BME280;67666;55.862;49.094;2023-03-01T04:22:58;98374.78;;;22.34;17.25
78056;BME280;67666;55.862;49.094;2023-03-01T04:25:25;98369.69;;;22.48;17.05
78056;BME280;67666;55.862;49.094;2023-03-01T04:27:52;98374.91;;;22.48;16.89
78056;BME280;67666;55.862;49.094;2023-03-01T04:30:19;98376.88;;;22.60;17.19
78056;BME280;67666;55.862;49.094;2023-03-01T04:32:45;98380.84;;;22.67;17.02
78056;BME280;67666;55.862;49.094;2023-03-01T04:35:11;98375.09;;;22.77;16.92
78056;BME280;67666;55.862;49.094;2023-03-01T04:37:37;98385.31;;;22.81;17.20
78056;BME280;67666;55.862;49.094;2023-03-01T04:40:04;98380.44;;;22.91;16.92
78056;BME280;67666;55.862;49.094;2023-03-01T04:42:38;98377.75;;;22.92;17.15
78056;BME280;67666;55.862;49.094;2023-03-01T04:45:11;98381.38;;;22.90;17.15
78056;BME280;67666;55.862;49.094;2023-03-01T04:47:43;98384.16;;;22.87;16.88
78056;BME280;67666;55.862;49.094;2023-03-01T04:50:15;98382.44;;;22.86;16.61
78056;BME280;67666;55.862;49.094;2023-03-01T04:52:43;98395.41;;;22.89;17.08
78056;BME280;67666;55.862;49.094;2023-03-01T04:55:10;98409.81;;;22.96;17.39
78056;BME280;67666;55.862;49.094;2023-03-01T04:57:37;98403.09;;;22.92;16.70
78056;BME280;67666;55.862;49.094;2023-03-01T05:00:06;98404.59;;;22.96;15.93
78056;BME280;67666;55.862;49.094;2023-03-01T05:02:54;98407.16;;;22.97;15.99
78056;BME280;67666;55.862;49.094;2023-03-01T05:05:39;98409.28;;;22.73;16.79
78056;BME280;67666;55.862;49.094;2023-03-01T05:08:07;98410.59;;;15.92;22.67
78056;BME280;67666;55.862;49.094;2023-03-01T05:10:35;98425.19;;;13.51;29.51
78056;BME280;67666;55.862;49.094;2023-03-01T05:13:03;98422.56;;;16.28;31.48
78056;BME280;67666;55.862;49.094;2023-03-01T05:15:31;98416.75;;;17.37;29.39
78056;BME280;67666;55.862;49.094;2023-03-01T05:17:59;98422.72;;;17.65;26.29
78056;BME280;67666;55.862;49.094;2023-03-01T05:20:27;98421.00;;;17.91;29.07
78056;BME280;67666;55.862;49.094;2023-03-01T05:22:59;98438.72;;;18.05;28.48
78056;BME280;67666;55.862;49.094;2023-03-01T05:25:26;98434.81;;;17.93;27.48
78056;BME280;67666;55.862;49.094;2023-03-01T05:27:52;98435.78;;;17.62;24.66
78056;BME280;67666;55.862;49.094;2023-03-01T05:30:18;98437.19;;;18.47;25.53
78056;BME280;67666;55.862;49.094;2023-03-01T05:32:47;98440.09;;;18.87;23.16
78056;BME280;67666;55.862;49.094;2023-03-01T05:35:15;98452.69;;;18.97;21.70
78056;BME280;67666;55.862;49.094;2023-03-01T05:37:43;98449.53;;;17.66;24.32
78056;BME280;67666;55.862;49.094;2023-03-01T05:40:23;98449.25;;;17.47;22.73
78056;BME280;67666;55.862;49.094;2023-03-01T05:43:19;98448.63;;;17.67;23.65
78056;BME280;67666;55.862;49.094;2023-03-01T05:45:45;98445.28;;;17.37;23.64
78056;BME280;67666;55.862;49.094;2023-03-01T05:48:12;98452.22;;;17.36;23.53
78056;BME280;67666;55.862;49.094;2023-03-01T05:50:41;98455.53;;;17.94;23.36
78056;BME280;67666;55.862;49.094;2023-03-01T05:53:19;98456.69;;;17.58;21.33
78056;BME280;67666;55.862;49.094;2023-03-01T05:55:48;98468.16;;;17.79;21.69
78056;BME280;67666;55.862;49.094;2023-03-01T05:58:17;98452.31;;;17.60;20.93
78056;BME280;67666;55.862;49.094;2023-03-01T06:00:47;98454.41;;;18.01;21.78
78056;BME280;67666;55.862;49.094;2023-03-01T06:03:15;98458.19;;;18.18;20.77
78056;BME280;67666;55.862;49.094;2023-03-01T06:05:43;98459.56;;;17.22;20.63
78056;BME280;67666;55.862;49.094;2023-03-01T06:08:10;98453.19;;;16.76;21.60
78056;BME280;67666;55.862;49.094;2023-03-01T06:10:37;98455.56;;;17.12;20.82
78056;BME280;67666;55.862;49.094;2023-03-01T06:13:03;98457.91;;;17.47;20.94
78056;BME280;67666;55.862;49.094;2023-03-01T06:15:30;98460.00;;;17.63;20.79
78056;BME280;67666;55.862;49.094;2023-03-01T06:17:56;98466.31;;;18.32;20.10
78056;BME280;67666;55.862;49.094;2023-03-01T06:20:23;98465.31;;;19.30;18.78
78056;BME280;67666;55.862;49.094;2023-03-01T06:22:50;98460.13;;;19.94;17.58
78056;BME280;67666;55.862;49.094;2023-03-01T06:25:20;98465.06;;;20.21;16.92
78056;BME280;67666;55.862;49.094;2023-03-01T06:27:48;98460.38;;;20.49;17.17
78056;BME280;67666;55.862;49.094;2023-03-01T06:30:16;98466.00;;;20.59;17.22
78056;BME280;67666;55.862;49.094;2023-03-01T06:32:43;98470.81;;;20.68;16.83
78056;BME280;67666;55.862;49.094;2023-03-01T06:35:14;98465.06;;;20.80;17.08
78056;BME280;67666;55.862;49.094;2023-03-01T06:37:44;98468.38;;;20.84;16.17
78056;BME280;67666;55.862;49.094;2023-03-01T06:40:11;98480.28;;;20.89;16.29
78056;BME280;67666;55.862;49.094;2023-03-01T06:42:38;98486.16;;;20.95;16.22
78056;BME280;67666;55.862;49.094;2023-03-01T06:45:06;98487.81;;;21.14;16.25
78056;BME280;67666;55.862;49.094;2023-03-01T06:47:33;98477.41;;;20.96;15.38
78056;BME280;67666;55.862;49.094;2023-03-01T06:50:00;98492.06;;;20.98;15.42
78056;BME280;67666;55.862;49.094;2023-03-01T06:52:27;98480.00;;;20.77;14.91
78056;BME280;67666;55.862;49.094;2023-03-01T06:54:53;98486.19;;;20.93;15.00
78056;BME280;67666;55.862;49.094;2023-03-01T06:57:20;98496.88;;;21.07;15.40
78056;BME280;67666;55.862;49.094;2023-03-01T06:59:47;98491.91;;;21.20;14.65
78056;BME280;67666;55.862;49.094;2023-03-01T07:02:14;98488.25;;;21.24;14.61
78056;BME280;67666;55.862;49.094;2023-03-01T07:04:41;98497.22;;;21.56;14.35
78056;BME280;67666;55.862;49.094;2023-03-01T07:07:08;98487.53;;;21.58;13.71
78056;BME280;67666;55.862;49.094;2023-03-01T07:09:34;98493.22;;;21.66;13.78
78056;BME280;67666;55.862;49.094;2023-03-01T07:12:00;98497.22;;;21.56;14.02
78056;BME280;67666;55.862;49.094;2023-03-01T07:14:27;98499.50;;;21.45;14.61
78056;BME280;67666;55.862;49.094;2023-03-01T07:16:54;98497.94;;;21.41;14.59
78056;BME280;67666;55.862;49.094;2023-03-01T07:19:21;98503.09;;;21.79;14.57
78056;BME280;67666;55.862;49.094;2023-03-01T07:21:47;98503.13;;;21.77;14.63
78056;BME280;67666;55.862;49.094;2023-03-01T07:24:14;98498.94;;;21.75;14.57
78056;BME280;67666;55.862;49.094;2023-03-01T07:26:41;98492.16;;;21.88;14.83
78056;BME280;67666;55.862;49.094;2023-03-01T07:29:09;98506.34;;;22.01;15.13
78056;BME280;67666;55.862;49.094;2023-03-01T07:31:36;98497.97;;;22.12;14.90
78056;BME280;67666;55.862;49.094;2023-03-01T07:34:02;98501.50;;;22.11;14.91
78056;BME280;67666;55.862;49.094;2023-03-01T07:36:28;98501.06;;;22.20;15.31
78056;BME280;67666;55.862;49.094;2023-03-01T07:38:55;98494.56;;;22.27;15.30
78056;BME280;67666;55.862;49.094;2023-03-01T07:41:21;98494.03;;;22.20;15.60
78056;BME280;67666;55.862;49.094;2023-03-01T07:43:48;98497.41;;;22.22;14.92
78056;BME280;67666;55.862;49.094;2023-03-01T07:46:14;98504.19;;;22.27;15.19
78056;BME280;67666;55.862;49.094;2023-03-01T07:48:40;98506.69;;;22.12;15.38
78056;BME280;67666;55.862;49.094;2023-03-01T07:51:07;98501.56;;;22.09;15.21
78056;BME280;67666;55.862;49.094;2023-03-01T07:53:34;98506.78;;;22.09;15.22
78056;BME280;67666;55.862;49.094;2023-03-01T07:56:08;98503.94;;;21.96;14.97
78056;BME280;67666;55.862;49.094;2023-03-01T07:58:39;98500.81;;;22.25;14.94
78056;BME280;67666;55.862;49.094;2023-03-01T08:01:07;98495.06;;;22.18;15.06
78056;BME280;67666;55.862;49.094;2023-03-01T08:03:34;98502.03;;;22.17;14.32
78056;BME280;67666;55.862;49.094;2023-03-01T08:06:06;98500.03;;;22.22;14.41
78056;BME280;67666;55.862;49.094;2023-03-01T08:08:33;98505.25;;;22.22;14.85
78056;BME280;67666;55.862;49.094;2023-03-01T08:11:01;98494.94;;;22.02;14.71
78056;BME280;67666;55.862;49.094;2023-03-01T08:13:28;98502.66;;;22.22;14.80
78056;BME280;67666;55.862;49.094;2023-03-01T08:16:01;98497.63;;;19.90;17.29
78056;BME280;67666;55.862;49.094;2023-03-01T08:18:27;98500.59;;;21.21;15.85
78056;BME280;67666;55.862;49.094;2023-03-01T08:20:54;98498.47;;;21.48;15.26
78056;BME280;67666;55.862;49.094;2023-03-01T08:23:20;98502.50;;;21.72;15.34
78056;BME280;67666;55.862;49.094;2023-03-01T08:25:46;98499.31;;;21.67;15.31
78056;BME280;67666;55.862;49.094;2023-03-01T08:28:12;98507.00;;;21.87;15.58
78056;BME280;67666;55.862;49.094;2023-03-01T08:30:38;98501.63;;;21.73;15.78
78056;BME280;67666;55.862;49.094;2023-03-01T08:33:05;98510.75;;;21.82;15.50
78056;BME280;67666;55.862;49.094;2023-03-01T08:35:31;98501.56;;;21.92;15.71
78056;BME280;67666;55.862;49.094;2023-03-01T08:37:57;98508.13;;;22.18;15.52
78056;BME280;67666;55.862;49.094;2023-03-01T08:40:23;98503.81;;;22.17;15.42
78056;BME280;67666;55.862;49.094;2023-03-01T08:42:49;98505.09;;;22.08;15.55
78056;BME280;67666;55.862;49.094;2023-03-01T08:45:16;98514.75;;;22.06;15.53
78056;BME280;67666;55.862;49.094;2023-03-01T08:47:44;98505.09;;;22.43;15.63
78056;BME280;67666;55.862;49.094;2023-03-01T08:50:11;98507.91;;;22.56;15.46
78056;BME280;67666;55.862;49.094;2023-03-01T08:52:37;98515.72;;;22.73;15.33
78056;BME280;67666;55.862;49.094;2023-03-01T08:55:03;98513.81;;;22.77;15.54
78056;BME280;67666;55.862;49.094;2023-03-01T08:57:30;98516.09;;;22.83;16.12
78056;BME280;67666;55.862;49.094;2023-03-01T08:59:56;98518.75;;;22.65;15.96
78056;BME280;67666;55.862;49.094;2023-03-01T09:02:22;98511.56;;;22.53;16.74
78056;BME280;67666;55.862;49.094;2023-03-01T09:04:48;98515.59;;;22.76;16.55
78056;BME280;67666;55.862;49.094;2023-03-01T09:07:14;98512.56;;;22.84;16.41
78056;BME280;67666;55.862;49.094;2023-03-01T09:09:41;98513.47;;;22.83;16.37
78056;BME280;67666;55.862;49.094;2023-03-01T09:12:07;98519.69;;;22.64;16.41
78056;BME280;67666;55.862;49.094;2023-03-01T09:14:36;98522.72;;;22.90;16.01
78056;BME280;67666;55.862;49.094;2023-03-01T09:17:04;98514.66;;;22.77;16.26
78056;BME280;67666;55.862;49.094;2023-03-01T09:19:30;98524.59;;;22.88;16.20
78056;BME280;67666;55.862;49.094;2023-03-01T09:21:56;98512.72;;;22.98;16.10
78056;BME280;67666;55.862;49.094;2023-03-01T09:24:24;98511.66;;;22.67;16.13
78056;BME280;67666;55.862;49.094;2023-03-01T09:26:53;98515.16;;;22.84;16.58
78056;BME280;67666;55.862;49.094;2023-03-01T09:29:19;98516.78;;;22.86;16.38
78056;BME280;67666;55.862;49.094;2023-03-01T09:31:46;98522.06;;;23.02;16.24
78056;BME280;67666;55.862;49.094;2023-03-01T09:34:12;98516.25;;;23.28;16.00
78056;BME280;67666;55.862;49.094;2023-03-01T09:36:41;98535.69;;;23.56;16.36
78056;BME280;67666;55.862;49.094;2023-03-01T09:39:08;98526.25;;;23.69;16.38
78056;BME280;67666;55.862;49.094;2023-03-01T09:46:51;98518.59;;;23.80;15.98
78056;BME280;67666;55.862;49.094;2023-03-01T09:49:27;98515.00;;;23.67;16.85
78056;BME280;67666;55.862;49.094;2023-03-01T09:54:23;98519.56;;;23.64;15.79
78056;BME280;67666;55.862;49.094;2023-03-01T09:56:56;98524.22;;;21.91;15.53
78056;BME280;67666;55.862;49.094;2023-03-01T09:59:46;98516.56;;;22.73;15.55
78056;BME280;67666;55.862;49.094;2023-03-01T10:04:52;98511.41;;;20.55;14.83
78056;BME280;67666;55.862;49.094;2023-03-01T10:10:07;98526.38;;;19.67;14.72
78056;BME280;67666;55.862;49.094;2023-03-01T10:12:40;98511.91;;;18.91;14.68
78056;BME280;67666;55.862;49.094;2023-03-01T10:15:18;98528.25;;;19.18;15.01
78056;BME280;67666;55.862;49.094;2023-03-01T10:20:30;98533.91;;;18.57;15.69
78056;BME280;67666;55.862;49.094;2023-03-01T10:23:00;98533.81;;;18.35;15.11
78056;BME280;67666;55.862;49.094;2023-03-01T10:25:44;98537.16;;;17.59;16.93
78056;BME280;67666;55.862;49.094;2023-03-01T10:28:17;98525.56;;;17.41;17.30
78056;BME280;67666;55.862;49.094;2023-03-01T10:30:44;98538.56;;;16.82;17.81
78056;BME280;67666;55.862;49.094;2023-03-01T10:33:20;98535.22;;;16.12;18.43
78056;BME280;67666;55.862;49.094;2023-03-01T10:35:48;98532.78;;;15.72;18.90
78056;BME280;67666;55.862;49.094;2023-03-01T10:38:16;98538.94;;;15.66;18.00
78056;BME280;67666;55.862;49.094;2023-03-01T10:41:05;98539.75;;;16.04;18.30
78056;BME280;67666;55.862;49.094;2023-03-01T10:43:47;98521.75;;;16.95;19.13
78056;BME280;67666;55.862;49.094;2023-03-01T10:49:20;98523.66;;;16.25;17.14
78056;BME280;67666;55.862;49.094;2023-03-01T10:51:49;98531.63;;;16.17;17.59
78056;BME280;67666;55.862;49.094;2023-03-01T10:56:48;98538.41;;;16.22;16.63
78056;BME280;67666;55.862;49.094;2023-03-01T10:59:36;98554.09;;;16.17;16.53
78056;BME280;67666;55.862;49.094;2023-03-01T11:02:16;98556.81;;;15.38;17.50
78056;BME280;67666;55.862;49.094;2023-03-01T11:05:03;98549.88;;;16.13;18.07
78056;BME280;67666;55.862;49.094;2023-03-01T11:10:28;98561.13;;;18.20;17.40
78056;BME280;67666;55.862;49.094;2023-03-01T11:13:27;98569.88;;;18.94;16.96
78056;BME280;67666;55.862;49.094;2023-03-01T11:16:12;98566.41;;;19.41;16.59
78056;BME280;67666;55.862;49.094;2023-03-01T11:18:56;98569.47;;;19.74;16.56
78056;BME280;67666;55.862;49.094;2023-03-01T11:21:23;98568.63;;;19.95;16.52
78056;BME280;67666;55.862;49.094;2023-03-01T11:23:50;98567.88;;;20.13;16.47
78056;BME280;67666;55.862;49.094;2023-03-01T11:26:17;98582.81;;;20.30;16.46
78056;BME280;67666;55.862;49.094;2023-03-01T11:28:48;98570.91;;;20.45;16.17
78056;BME280;67666;55.862;49.094;2023-03-01T11:31:19;98577.28;;;20.60;16.64
78056;BME280;67666;55.862;49.094;2023-03-01T11:34:00;98581.16;;;20.70;16.61
78056;BME280;67666;55.862;49.094;2023-03-01T11:36:52;98580.03;;;20.96;16.16
78056;BME280;67666;55.862;49.094;2023-03-01T11:39:45;98574.25;;;21.08;16.35
78056;BME280;67666;55.862;49.094;2023-03-01T11:43:15;98585.69;;;21.06;16.22
78056;BME280;67666;55.862;49.094;2023-03-01T11:45:15;98578.91;;;21.21;16.82
78056;BME280;67666;55.862;49.094;2023-03-01T11:48:17;98585.44;;;21.31;16.50
78056;BME280;67666;55.862;49.094;2023-03-01T11:50:52;98572.81;;;21.40;16.47
78056;BME280;67666;55.862;49.094;2023-03-01T11:59:06;98589.53;;;21.74;16.92
78056;BME280;67666;55.862;49.094;2023-03-01T12:07:46;98584.75;;;21.46;16.40
78056;BME280;67666;55.862;49.094;2023-03-01T12:10:26;98595.03;;;21.49;16.83
78056;BME280;67666;55.862;49.094;2023-03-01T12:18:54;98581.44;;;21.61;16.75
78056;BME280;67666;55.862;49.094;2023-03-01T12:22:28;98585.75;;;21.62;16.58
78056;BME280;67666;55.862;49.094;2023-03-01T12:35:10;98586.38;;;21.49;16.89
78056;BME280;67666;55.862;49.094;2023-03-01T12:38:01;98596.81;;;21.49;16.60
78056;BME280;67666;55.862;49.094;2023-03-01T12:46:32;98605.63;;;21.65;17.20
78056;BME280;67666;55.862;49.094;2023-03-01T12:49:15;98607.47;;;21.63;17.59
78056;BME280;67666;55.862;49.094;2023-03-01T12:51:51;98575.28;;;21.62;16.71
78056;BME280;67666;55.862;49.094;2023-03-01T12:54:26;98599.84;;;21.58;16.96
78056;BME280;67666;55.862;49.094;2023-03-01T12:56:55;98598.50;;;21.50;17.07
78056;BME280;67666;55.862;49.094;2023-03-01T12:59:59;98608.06;;;21.51;17.39
78056;BME280;67666;55.862;49.094;2023-03-01T13:05:26;98601.69;;;21.56;17.45
78056;BME280;67666;55.862;49.094;2023-03-01T13:08:05;98599.44;;;21.67;17.40
78056;BME280;67666;55.862;49.094;2023-03-01T13:10:57;98607.06;;;21.53;17.28
78056;BME280;67666;55.862;49.094;2023-03-01T13:13:27;98603.09;;;21.63;17.34
78056;BME280;67666;55.862;49.094;2023-03-01T13:15:55;98597.38;;;21.55;17.68
78056;BME280;67666;55.862;49.094;2023-03-01T13:20:50;98607.81;;;21.55;18.16
78056;BME280;67666;55.862;49.094;2023-03-01T13:26:17;98611.88;;;21.62;17.72
78056;BME280;67666;55.862;49.094;2023-03-01T13:34:00;98607.34;;;21.47;17.26
78056;BME280;67666;55.862;49.094;2023-03-01T13:38:57;98601.13;;;21.50;18.79
78056;BME280;67666;55.862;49.094;2023-03-01T13:41:49;98604.50;;;21.70;18.55
78056;BME280;67666;55.862;49.094;2023-03-01T13:47:36;98603.31;;;21.95;18.37
78056;BME280;67666;55.862;49.094;2023-03-01T13:57:42;98602.94;;;22.21;18.49
78056;BME280;67666;55.862;49.094;2023-03-01T14:00:34;98593.19;;;22.25;18.35
78056;BME280;67666;55.862;49.094;2023-03-01T14:03:15;98604.03;;;22.35;18.31
78056;BME280;67666;55.862;49.094;2023-03-01T14:05:57;98611.03;;;22.34;18.45
78056;BME280;67666;55.862;49.094;2023-03-01T14:08:26;98610.97;;;22.36;18.90
78056;BME280;67666;55.862;49.094;2023-03-01T14:21:43;98628.66;;;22.48;19.44
78056;BME280;67666;55.862;49.094;2023-03-01T14:24:20;98627.66;;;22.51;19.58
78056;BME280;67666;55.862;49.094;2023-03-01T14:26:47;98630.22;;;22.52;19.61
78056;BME280;67666;55.862;49.094;2023-03-01T14:30:03;98628.28;;;22.56;19.68
78056;BME280;67666;55.862;49.094;2023-03-01T14:32:31;98626.50;;;22.56;19.77
78056;BME280;67666;55.862;49.094;2023-03-01T14:34:59;98630.75;;;22.59;18.87
78056;BME280;67666;55.862;49.094;2023-03-01T14:37:28;98632.44;;;22.60;19.78
78056;BME280;67666;55.862;49.094;2023-03-01T14:39:56;98638.19;;;22.66;19.91
78056;BME280;67666;55.862;49.094;2023-03-01T14:42:25;98635.66;;;22.65;19.39
78056;BME280;67666;55.862;49.094;2023-03-01T14:44:55;98638.06;;;22.69;19.61
78056;BME280;67666;55.862;49.094;2023-03-01T14:47:40;98631.91;;;22.70;19.62
78056;BME280;67666;55.862;49.094;2023-03-01T14:52:52;98639.66;;;22.72;18.84
78056;BME280;67666;55.862;49.094;2023-03-01T14:55:41;98640.41;;;22.74;19.45
78056;BME280;67666;55.862;49.094;2023-03-01T14:58:19;98644.06;;;22.71;19.48
78056;BME280;67666;55.862;49.094;2023-03-01T15:00:58;98646.50;;;22.74;19.36
78056;BME280;67666;55.862;49.094;2023-03-01T15:03:35;98628.25;;;22.73;19.29
78056;BME280;67666;55.862;49.094;2023-03-01T15:06:06;98634.50;;;22.70;19.25
78056;BME280;67666;55.862;49.094;2023-03-01T15:08:33;98641.84;;;22.64;19.24